Time;durP1;ratioP1;P1;durP2;ratioP2;P2;SDS_P1;SDS_P2;PMS_P1;PMS_P2;Temp;Humidity;BMP_temperature;BMP_pressure;BME280_temperature;BME280_humidity;BME280_pressure;Samples;Min_cycle;Max_cycle;Signal;HPM_P1;HPM_P2
2023/04/16 00:01:50;;;;;;;;;;;7.60;99.90;;;;;;5075707;28;19928;-71
2023/04/16 00:04:17;;;;;;;;;;;7.60;99.90;;;;;;5092152;28;19924;-70
2023/04/16 00:06:44;;;;;;;;;;;7.60;99.90;;;;;;5084026;28;19927;-69
2023/04/16 00:09:11;;;;;;;;;;;7.60;99.90;;;;;;5090204;28;19924;-70
2023/04/16 00:11:38;;;;;;;;;;;7.60;99.90;;;;;;5091242;28;19924;-68
2023/04/16 00:14:04;;;;;;;;;;;7.60;99.90;;;;;;5083401;28;19929;-69
2023/04/16 00:16:33;;;;;;;;;;;7.60;99.90;;;;;;5088617;28;20395;-69
2023/04/16 00:18:59;;;;;;;;;;;7.60;99.90;;;;;;5079398;28;19939;-71
2023/04/16 00:21:26;;;;;;;;;;;7.60;99.90;;;;;;5090964;28;19939;-70
2023/04/16 00:23:53;;;;;;;;;;;7.60;99.90;;;;;;5081923;28;19974;-70
2023/04/16 00:26:20;;;;;;;;;;;7.60;99.90;;;;;;5072459;28;19931;-70
2023/04/16 00:28:47;;;;;;;;;;;7.60;99.90;;;;;;5078613;28;19932;-70
2023/04/16 00:31:14;;;;;;;;;;;7.60;99.90;;;;;;5072889;28;20002;-70
2023/04/16 00:33:42;;;;;;;;;;;7.60;99.90;;;;;;5082425;28;19931;-68
2023/04/16 00:36:09;;;;;;;;;;;7.60;99.90;;;;;;5083914;28;19924;-70
2023/04/16 00:38:36;;;;;;;;;;;7.60;99.90;;;;;;5089814;28;20408;-70
2023/04/16 00:41:03;;;;;;;;;;;7.60;99.90;;;;;;5096809;28;20357;-69
2023/04/16 00:43:30;;;;;;;;;;;7.60;99.90;;;;;;5081390;28;19924;-70
2023/04/16 00:45:57;;;;;;;;;;;7.60;99.90;;;;;;5081852;28;19931;-70
2023/04/16 00:48:26;;;;;;;;;;;7.60;99.90;;;;;;5089900;28;19932;-70
2023/04/16 00:50:55;;;;;;;;;;;7.60;99.90;;;;;;5083667;28;19933;-70
2023/04/16 00:53:22;;;;;;;;;;;7.60;99.90;;;;;;5090202;28;20299;-70
2023/04/16 00:55:48;;;;;;;;;;;7.60;99.90;;;;;;5088402;28;19924;-69
2023/04/16 00:58:15;;;;;;;;;;;7.60;99.90;;;;;;5086511;28;19932;-68
2023/04/16 01:00:42;;;;;;;;;;;7.60;99.90;;;;;;5084899;28;20365;-69
2023/04/16 01:03:09;;;;;;;;;;;7.60;99.90;;;;;;5085570;28;20303;-69
2023/04/16 01:05:36;;;;;;;;;;;7.60;99.90;;;;;;5085554;28;20015;-70
2023/04/16 01:08:05;;;;;;;;;;;7.60;99.90;;;;;;5102703;28;19924;-69
2023/04/16 01:10:31;;;;;;;;;;;7.60;99.90;;;;;;5102870;28;19924;-68
2023/04/16 01:12:58;;;;;;;;;;;7.60;99.90;;;;;;5081709;28;20383;-69
2023/04/16 01:15:25;;;;;;;;;;;7.60;99.90;;;;;;5090952;28;19981;-68
2023/04/16 01:17:51;;;;;;;;;;;7.60;99.90;;;;;;5080170;28;19923;-67
2023/04/16 01:20:18;;;;;;;;;;;7.60;99.90;;;;;;5079865;28;20383;-69
2023/04/16 01:22:46;;;;;;;;;;;7.70;99.90;;;;;;5082113;28;19977;-68
2023/04/16 01:25:13;;;;;;;;;;;7.60;99.90;;;;;;5084791;28;20015;-69
2023/04/16 01:27:40;;;;;;;;;;;7.60;99.90;;;;;;5086921;28;20008;-69
2023/04/16 01:30:07;;;;;;;;;;;7.60;99.90;;;;;;5075931;28;19941;-70
2023/04/16 01:32:45;;;;;;;;;;;7.60;99.90;;;;;;5088559;28;19935;-68
2023/04/16 01:35:12;;;;;;;;;;;7.60;99.90;;;;;;5085036;28;19925;-66
2023/04/16 01:37:39;;;;;;;;;;;7.60;99.90;;;;;;5080947;28;19929;-69
2023/04/16 01:40:07;;;;;;;;;;;7.60;99.90;;;;;;5079452;28;19928;-71
2023/04/16 01:42:34;;;;;;;;;;;7.60;99.90;;;;;;5077227;28;20364;-69
2023/04/16 01:45:01;;;;;;;;;;;7.60;99.90;;;;;;5085421;28;20409;-69
2023/04/16 01:47:27;;;;;;;;;;;7.60;99.90;;;;;;5084862;28;19924;-69
2023/04/16 01:49:54;;;;;;;;;;;7.60;99.90;;;;;;5077169;28;19928;-69
2023/04/16 01:52:21;;;;;;;;;;;7.60;99.90;;;;;;5081065;28;19986;-69
2023/04/16 01:54:48;;;;;;;;;;;7.60;99.90;;;;;;5080996;28;20424;-69
2023/04/16 01:57:16;;;;;;;;;;;7.60;99.90;;;;;;5078783;28;19982;-69
2023/04/16 01:59:43;;;;;;;;;;;7.60;99.90;;;;;;5084628;28;19924;-69
2023/04/16 02:02:10;;;;;;;;;;;7.60;99.90;;;;;;5080600;28;19924;-69
2023/04/16 02:04:38;;;;;;;;;;;7.60;99.90;;;;;;5080091;28;20023;-69
2023/04/16 02:07:05;;;;;;;;;;;7.60;99.90;;;;;;5081702;28;19938;-69
2023/04/16 02:09:32;;;;;;;;;;;;;;;;;;5082498;28;19974;-69
2023/04/16 02:12:01;;;;;;;;;;;7.60;99.90;;;;;;5075099;28;19945;-69
2023/04/16 02:14:29;;;;;;;;;;;7.60;99.90;;;;;;5088177;28;19967;-68
2023/04/16 02:16:56;;;;;;;;;;;7.60;99.90;;;;;;5091391;28;19928;-69
2023/04/16 02:19:36;;;;;;;;;;;7.60;99.90;;;;;;5089016;28;19935;-68
2023/04/16 02:22:03;;;;;;;;;;;7.70;99.90;;;;;;5083448;28;19930;-68
2023/04/16 02:24:30;;;;;;;;;;;7.70;99.90;;;;;;5084403;28;20442;-68
2023/04/16 02:26:59;;;;;;;;;;;7.70;99.90;;;;;;5083634;28;19964;-69
2023/04/16 02:29:25;;;;;;;;;;;7.70;99.90;;;;;;5091987;28;19924;-68
2023/04/16 02:32:03;;;;;;;;;;;7.60;99.90;;;;;;5091715;28;19924;-68
2023/04/16 02:34:33;;;;;;;;;;;7.60;99.90;;;;;;5081654;28;19978;-68
2023/04/16 02:37:00;;;;;;;;;;;7.60;99.90;;;;;;5083031;28;20041;-67
2023/04/16 02:39:27;;;;;;;;;;;7.60;99.90;;;;;;5080535;28;19925;-69
2023/04/16 02:41:54;;;;;;;;;;;7.60;99.90;;;;;;5085444;28;19932;-69
2023/04/16 02:44:21;;;;;;;;;;;7.60;99.90;;;;;;5089122;28;19924;-69
2023/04/16 02:46:48;;;;;;;;;;;7.60;99.90;;;;;;5086705;28;19924;-68
2023/04/16 02:49:16;;;;;;;;;;;7.60;99.90;;;;;;5076805;28;19935;-67
2023/04/16 02:51:43;;;;;;;;;;;7.70;99.90;;;;;;5090310;28;19928;-69
2023/04/16 02:54:09;;;;;;;;;;;7.60;99.90;;;;;;5082193;28;19931;-69
2023/04/16 02:56:36;;;;;;;;;;;7.70;99.90;;;;;;5092169;28;19928;-69
2023/04/16 02:59:03;;;;;;;;;;;7.70;99.90;;;;;;5101434;28;19925;-69
2023/04/16 03:01:30;;;;;;;;;;;7.70;99.90;;;;;;5084943;28;19925;-69
2023/04/16 03:03:57;;;;;;;;;;;7.70;99.90;;;;;;5089298;28;19932;-67
2023/04/16 03:06:26;;;;;;;;;;;7.50;99.90;;;;;;5086980;28;19956;-69
2023/04/16 03:08:53;;;;;;;;;;;7.60;99.90;;;;;;5081675;28;19939;-69
2023/04/16 03:11:20;;;;;;;;;;;7.60;99.90;;;;;;5085727;28;19931;-68
2023/04/16 03:13:46;;;;;;;;;;;7.20;99.90;;;;;;5089041;28;19928;-70
2023/04/16 03:16:13;;;;;;;;;;;7.80;99.90;;;;;;5090058;28;20055;-69
2023/04/16 03:18:40;;;;;;;;;;;7.60;99.90;;;;;;5078616;28;19926;-70
2023/04/16 03:21:07;;;;;;;;;;;7.60;99.90;;;;;;5073164;28;19932;-66
2023/04/16 03:23:35;;;;;;;;;;;8.40;99.90;;;;;;5073098;28;19928;-69
2023/04/16 03:26:02;;;;;;;;;;;7.70;99.90;;;;;;5073170;28;19951;-69
2023/04/16 03:28:29;;;;;;;;;;;7.70;99.90;;;;;;5073078;28;19990;-69
2023/04/16 03:30:56;;;;;;;;;;;7.60;99.90;;;;;;5073289;28;19926;-69
2023/04/16 03:33:23;;;;;;;;;;;7.60;99.90;;;;;;5073202;28;19924;-69
2023/04/16 03:35:58;;;;;;;;;;;7.60;99.90;;;;;;5072657;28;19931;-69
2023/04/16 03:38:26;;;;;;;;;;;7.60;99.90;;;;;;5073327;28;19924;-68
2023/04/16 03:40:57;;;;;;;;;;;7.60;99.90;;;;;;5073083;28;19931;-70
2023/04/16 03:43:24;;;;;;;;;;;7.60;99.90;;;;;;5072795;28;19952;-69
2023/04/16 03:45:51;;;;;;;;;;;7.60;99.90;;;;;;5073041;28;19924;-68
2023/04/16 03:48:21;;;;;;;;;;;7.60;99.90;;;;;;5072762;28;20392;-68
2023/04/16 03:50:47;;;;;;;;;;;7.60;99.90;;;;;;5072911;28;19928;-69
2023/04/16 03:53:16;;;;;;;;;;;7.60;99.90;;;;;;5072482;28;20411;-70
2023/04/16 03:55:43;;;;;;;;;;;7.60;99.90;;;;;;5072830;28;19925;-68
2023/04/16 03:58:11;;;;;;;;;;;7.60;99.90;;;;;;5072681;28;20026;-69
2023/04/16 04:00:41;;;;;;;;;;;7.60;99.90;;;;;;5072503;28;19935;-69
2023/04/16 04:03:15;;;;;;;;;;;7.60;99.90;;;;;;5072515;28;19999;-69
2023/04/16 04:05:43;;;;;;;;;;;7.60;99.90;;;;;;5072295;28;19956;-69
2023/04/16 04:08:13;;;;;;;;;;;7.60;99.90;;;;;;5072466;28;19924;-69
2023/04/16 04:10:40;;;;;;;;;;;7.60;99.90;;;;;;5072415;28;20364;-70
2023/04/16 04:13:10;;;;;;;;;;;7.60;99.90;;;;;;5072826;28;20037;-69
2023/04/16 04:15:38;;;;;;;;;;;7.60;99.90;;;;;;5072436;28;19959;-69
2023/04/16 04:18:05;;;;;;;;;;;7.60;99.90;;;;;;5072311;28;19956;-68
2023/04/16 04:20:32;;;;;;;;;;;7.60;99.90;;;;;;5072278;28;19925;-70
2023/04/16 04:22:59;;;;;;;;;;;7.60;99.90;;;;;;5071953;28;19929;-68
2023/04/16 04:25:26;;;;;;;;;;;7.60;99.90;;;;;;5071868;28;19978;-68
2023/04/16 04:27:53;;;;;;;;;;;7.60;99.90;;;;;;5071871;28;19925;-69
2023/04/16 04:30:20;;;;;;;;;;;7.60;99.90;;;;;;5072187;28;20384;-69
2023/04/16 04:32:48;;;;;;;;;;;7.60;99.90;;;;;;5071936;28;20007;-70
2023/04/16 04:35:16;;;;;;;;;;;7.60;99.90;;;;;;5071850;28;20019;-68
2023/04/16 04:37:43;;;;;;;;;;;7.60;99.90;;;;;;5071785;28;20009;-69
2023/04/16 04:40:19;;;;;;;;;;;7.60;99.90;;;;;;5071912;28;19935;-69
2023/04/16 04:42:46;;;;;;;;;;;7.60;99.90;;;;;;5071479;28;19970;-69
2023/04/16 04:45:13;;;;;;;;;;;7.70;99.90;;;;;;5072091;28;19924;-68
2023/04/16 04:47:41;;;;;;;;;;;7.70;99.90;;;;;;5071384;28;20301;-69
2023/04/16 04:50:09;;;;;;;;;;;7.70;99.90;;;;;;5072062;28;19924;-69
2023/04/16 04:52:36;;;;;;;;;;;7.70;99.90;;;;;;5071395;28;19925;-69
2023/04/16 04:55:03;;;;;;;;;;;7.70;99.90;;;;;;5071905;28;19969;-70
2023/04/16 04:57:30;;;;;;;;;;;7.70;99.90;;;;;;5071444;28;19925;-69
2023/04/16 04:59:57;;;;;;;;;;;7.70;99.90;;;;;;5071484;28;19931;-70
2023/04/16 05:02:24;;;;;;;;;;;7.70;99.90;;;;;;5079117;28;20027;-69
2023/04/16 05:04:50;;;;;;;;;;;7.80;99.90;;;;;;5083366;28;19967;-68
2023/04/16 05:07:19;;;;;;;;;;;7.80;99.90;;;;;;5125466;27;19924;-69
2023/04/16 05:09:45;;;;;;;;;;;7.80;99.90;;;;;;5125364;27;19928;-69
2023/04/16 05:12:12;;;;;;;;;;;7.70;99.90;;;;;;5091399;28;19924;-69
2023/04/16 05:14:39;;;;;;;;;;;7.80;99.90;;;;;;5091434;28;19932;-68
2023/04/16 05:17:06;;;;;;;;;;;7.80;99.90;;;;;;5088826;28;19931;-68
2023/04/16 05:19:33;;;;;;;;;;;7.80;99.90;;;;;;5071233;28;19963;-69
2023/04/16 05:22:01;;;;;;;;;;;7.80;99.90;;;;;;5070840;28;19924;-68
2023/04/16 05:24:29;;;;;;;;;;;7.80;99.90;;;;;;5070948;28;20020;-68
2023/04/16 05:26:57;;;;;;;;;;;7.80;99.90;;;;;;5071161;28;19948;-69
2023/04/16 05:29:23;;;;;;;;;;;7.80;99.90;;;;;;5071164;28;20334;-69
2023/04/16 05:31:50;;;;;;;;;;;7.90;99.90;;;;;;5071039;28;19931;-68
2023/04/16 05:34:17;;;;;;;;;;;7.90;99.90;;;;;;5070816;28;20288;-70
2023/04/16 05:36:44;;;;;;;;;;;7.90;99.90;;;;;;5070905;28;19931;-68
2023/04/16 05:39:11;;;;;;;;;;;7.90;99.90;;;;;;5070956;28;20373;-69
2023/04/16 05:41:39;;;;;;;;;;;7.90;99.90;;;;;;5070705;28;19924;-69
2023/04/16 05:44:06;;;;;;;;;;;7.90;99.90;;;;;;5070544;28;19924;-69
2023/04/16 05:46:33;;;;;;;;;;;7.90;99.90;;;;;;5070595;28;19932;-70
2023/04/16 05:48:59;;;;;;;;;;;7.90;99.90;;;;;;5070636;28;19989;-70
2023/04/16 05:51:26;;;;;;;;;;;7.90;99.90;;;;;;5070574;28;19932;-74
2023/04/16 05:53:53;;;;;;;;;;;8.00;99.90;;;;;;5070540;28;19924;-77
2023/04/16 05:56:20;;;;;;;;;;;8.00;99.90;;;;;;5070747;28;19943;-74
2023/04/16 05:58:48;;;;;;;;;;;8.00;99.90;;;;;;5070993;28;19985;-75
2023/04/16 06:01:15;;;;;;;;;;;8.00;99.90;;;;;;5075636;28;19974;-70
2023/04/16 06:03:42;;;;;;;;;;;8.00;99.90;;;;;;5074769;28;19967;-73
2023/04/16 06:06:08;;;;;;;;;;;8.00;99.90;;;;;;5074773;28;20438;-70
2023/04/16 06:08:35;;;;;;;;;;;8.10;99.90;;;;;;5074414;28;19924;-69
2023/04/16 06:11:01;;;;;;;;;;;8.10;99.90;;;;;;5074452;28;20462;-68
2023/04/16 06:13:28;;;;;;;;;;;8.10;99.90;;;;;;5075737;28;20024;-70
2023/04/16 06:15:56;;;;;;;;;;;8.10;99.90;;;;;;5074587;28;19998;-70
2023/04/16 06:18:23;;;;;;;;;;;8.10;99.90;;;;;;5076679;28;19975;-69
2023/04/16 06:20:50;;;;;;;;;;;8.20;99.90;;;;;;5095907;28;20586;-69
2023/04/16 06:23:16;;;;;;;;;;;8.20;99.90;;;;;;5094315;28;20351;-69
2023/04/16 06:25:43;;;;;;;;;;;8.20;99.90;;;;;;5094811;28;19960;-70
2023/04/16 06:28:09;;;;;;;;;;;8.30;99.90;;;;;;5094273;28;19932;-66
2023/04/16 06:30:36;;;;;;;;;;;8.20;99.90;;;;;;5094784;28;20372;-67
2023/04/16 06:33:04;;;;;;;;;;;8.20;99.90;;;;;;5094039;28;19975;-65
2023/04/16 06:35:31;;;;;;;;;;;8.20;99.90;;;;;;5094205;28;19925;-65
2023/04/16 06:37:58;;;;;;;;;;;8.20;99.90;;;;;;5094254;28;19989;-67
2023/04/16 06:40:24;;;;;;;;;;;8.20;99.90;;;;;;5094252;28;19924;-66
2023/04/16 06:42:51;;;;;;;;;;;8.30;99.90;;;;;;5094159;28;19924;-64
2023/04/16 06:45:18;;;;;;;;;;;8.30;99.90;;;;;;5094375;28;19997;-67
2023/04/16 06:47:45;;;;;;;;;;;8.30;99.90;;;;;;5094186;28;19931;-70
2023/04/16 06:50:13;;;;;;;;;;;8.40;99.90;;;;;;5094370;28;19952;-72
2023/04/16 06:52:40;;;;;;;;;;;8.40;99.90;;;;;;5093955;28;20404;-69
2023/04/16 06:55:08;;;;;;;;;;;8.40;99.90;;;;;;5094350;28;19924;-68
2023/04/16 06:57:35;;;;;;;;;;;8.40;99.90;;;;;;5093962;28;19924;-78
2023/04/16 07:00:03;;;;;;;;;;;8.50;99.90;;;;;;5093994;28;19924;-69
2023/04/16 07:02:30;;;;;;;;;;;8.50;99.90;;;;;;5094844;28;19935;-68
2023/04/16 07:04:57;;;;;;;;;;;8.50;99.90;;;;;;5093624;28;20313;-68
2023/04/16 07:07:25;;;;;;;;;;;8.50;99.90;;;;;;5093563;28;19928;-68
2023/04/16 07:09:52;;;;;;;;;;;8.60;99.90;;;;;;5093429;28;19930;-68
2023/04/16 07:12:19;;;;;;;;;;;8.60;99.90;;;;;;5093118;28;19924;-69
2023/04/16 07:14:46;;;;;;;;;;;8.60;99.90;;;;;;5092449;28;19947;-69
2023/04/16 07:17:13;;;;;;;;;;;8.60;99.90;;;;;;5082191;28;19924;-66
2023/04/16 07:19:40;;;;;;;;;;;8.60;99.90;;;;;;5081782;28;19928;-67
2023/04/16 07:22:07;;;;;;;;;;;8.60;99.90;;;;;;5072848;28;19924;-68
2023/04/16 07:24:35;;;;;;;;;;;8.70;99.90;;;;;;5072992;28;19929;-67
2023/04/16 07:27:02;;;;;;;;;;;8.70;99.90;;;;;;5072932;28;19934;-67
2023/04/16 07:29:28;;;;;;;;;;;8.70;99.90;;;;;;5073113;28;19974;-68
2023/04/16 07:31:55;;;;;;;;;;;8.70;99.90;;;;;;5073240;28;19954;-68
2023/04/16 07:34:22;;;;;;;;;;;8.80;99.90;;;;;;5073025;28;19925;-66
2023/04/16 07:36:49;;;;;;;;;;;8.70;99.90;;;;;;5072782;28;19931;-68
2023/04/16 07:39:15;;;;;;;;;;;8.70;99.90;;;;;;5072830;28;19974;-68
2023/04/16 07:41:44;;;;;;;;;;;8.70;99.90;;;;;;5088735;28;19928;-67
2023/04/16 07:44:11;;;;;;;;;;;8.80;99.90;;;;;;5073449;28;20395;-68
2023/04/16 07:46:37;;;;;;;;;;;8.80;99.90;;;;;;5072631;28;19924;-68
2023/04/16 07:49:04;;;;;;;;;;;8.80;99.90;;;;;;5072122;28;19929;-69
2023/04/16 07:51:31;;;;;;;;;;;8.80;99.90;;;;;;5089591;28;19935;-68
2023/04/16 07:53:58;;;;;;;;;;;8.80;99.90;;;;;;5092670;28;20006;-68
2023/04/16 07:56:24;;;;;;;;;;;8.80;99.90;;;;;;5092764;28;19928;-68
2023/04/16 07:58:52;;;;;;;;;;;8.80;99.90;;;;;;5092788;28;19924;-68
2023/04/16 08:01:19;;;;;;;;;;;8.90;99.90;;;;;;5092929;28;19924;-69
2023/04/16 08:03:46;;;;;;;;;;;8.80;99.90;;;;;;5092542;28;19924;-68
2023/04/16 08:06:13;;;;;;;;;;;8.90;99.90;;;;;;5092451;28;19931;-68
2023/04/16 08:08:40;;;;;;;;;;;8.90;99.90;;;;;;5092460;28;19924;-68
2023/04/16 08:11:07;;;;;;;;;;;8.90;99.90;;;;;;5092799;28;20027;-68
2023/04/16 08:13:33;;;;;;;;;;;8.90;99.90;;;;;;5092525;28;19924;-70
2023/04/16 08:16:02;;;;;;;;;;;9.00;99.90;;;;;;5092777;28;19961;-68
2023/04/16 08:18:28;;;;;;;;;;;9.00;99.90;;;;;;5092389;28;19924;-68
2023/04/16 08:20:55;;;;;;;;;;;8.90;99.90;;;;;;5092563;28;19932;-68
2023/04/16 08:23:22;;;;;;;;;;;9.00;99.90;;;;;;5091234;28;19949;-68
2023/04/16 08:25:49;;;;;;;;;;;8.80;99.90;;;;;;5092389;28;19924;-68
2023/04/16 08:28:15;;;;;;;;;;;8.90;99.90;;;;;;5092332;28;19931;-68
2023/04/16 08:30:44;;;;;;;;;;;9.00;99.90;;;;;;5091924;28;19942;-70
2023/04/16 08:33:13;;;;;;;;;;;9.00;99.90;;;;;;5091887;28;20019;-67
2023/04/16 08:35:40;;;;;;;;;;;9.00;99.90;;;;;;5092076;28;20383;-68
2023/04/16 08:38:07;;;;;;;;;;;9.00;99.90;;;;;;5091959;28;20341;-68
2023/04/16 08:40:37;;;;;;;;;;;9.00;99.90;;;;;;5092016;28;19956;-68
2023/04/16 08:43:05;;;;;;;;;;;9.00;99.90;;;;;;5087983;28;19928;-66
2023/04/16 08:45:34;;;;;;;;;;;9.00;99.90;;;;;;5089878;28;19978;-66
2023/04/16 08:48:01;;;;;;;;;;;9.10;99.90;;;;;;5100887;28;19924;-68
2023/04/16 08:50:30;;;;;;;;;;;9.10;99.90;;;;;;5087394;28;20015;-69
2023/04/16 08:52:58;;;;;;;;;;;9.10;99.90;;;;;;5071047;28;19925;-68
2023/04/16 08:55:26;;;;;;;;;;;9.10;99.90;;;;;;5071594;28;19931;-68
2023/04/16 08:57:54;;;;;;;;;;;9.20;99.90;;;;;;5071696;28;19924;-69
2023/04/16 09:00:21;;;;;;;;;;;9.20;99.90;;;;;;5077974;28;19950;-69
2023/04/16 09:02:48;;;;;;;;;;;9.30;99.90;;;;;;5079769;28;20405;-68
2023/04/16 09:05:17;;;;;;;;;;;9.40;99.90;;;;;;5079572;28;19925;-67
2023/04/16 09:07:46;;;;;;;;;;;9.40;99.90;;;;;;5071318;28;19924;-68
2023/04/16 09:10:12;;;;;;;;;;;9.50;99.90;;;;;;5070918;28;19959;-68
2023/04/16 09:12:40;;;;;;;;;;;9.40;99.90;;;;;;5071397;28;19924;-66
2023/04/16 09:15:07;;;;;;;;;;;9.50;99.90;;;;;;5071016;28;19932;-68
2023/04/16 09:17:34;;;;;;;;;;;9.50;99.90;;;;;;5070973;28;19928;-69
2023/04/16 09:20:01;;;;;;;;;;;9.50;99.90;;;;;;5071324;28;19982;-67
2023/04/16 09:22:27;;;;;;;;;;;9.50;99.90;;;;;;5070780;28;19924;-68
2023/04/16 09:24:56;;;;;;;;;;;9.60;99.90;;;;;;5071118;28;19924;-68
2023/04/16 09:27:23;;;;;;;;;;;9.60;99.90;;;;;;5071036;28;20338;-67
2023/04/16 09:29:49;;;;;;;;;;;9.60;99.90;;;;;;5071164;28;19924;-69
2023/04/16 09:32:16;;;;;;;;;;;9.60;99.90;;;;;;5070966;28;19932;-68
2023/04/16 09:34:57;;;;;;;;;;;9.60;99.90;;;;;;5070611;28;19929;-68
2023/04/16 09:37:24;;;;;;;;;;;9.50;99.90;;;;;;5071000;28;19975;-68
2023/04/16 09:39:56;;;;;;;;;;;9.50;99.90;;;;;;5084976;28;19971;-68
2023/04/16 09:42:27;;;;;;;;;;;9.60;99.90;;;;;;5091320;28;19958;-68
2023/04/16 09:44:54;;;;;;;;;;;9.50;99.90;;;;;;5091162;28;19924;-67
2023/04/16 09:47:21;;;;;;;;;;;9.50;99.90;;;;;;5090963;28;20425;-68
2023/04/16 09:49:48;;;;;;;;;;;9.50;99.90;;;;;;5091290;28;19924;-67
2023/04/16 09:52:16;;;;;;;;;;;9.60;99.90;;;;;;5090985;28;19928;-68
2023/04/16 09:54:46;;;;;;;;;;;9.50;99.90;;;;;;5090700;28;19924;-69
2023/04/16 09:57:14;;;;;;;;;;;9.50;99.90;;;;;;5090867;28;19935;-68
2023/04/16 09:59:41;;;;;;;;;;;9.40;99.90;;;;;;5091005;28;19925;-69
2023/04/16 10:02:08;;;;;;;;;;;9.50;99.90;;;;;;5090638;28;19978;-69
2023/04/16 10:04:45;;;;;;;;;;;9.60;99.90;;;;;;5090561;28;19932;-68
2023/04/16 10:07:12;;;;;;;;;;;9.80;99.90;;;;;;5090950;28;19924;-68
2023/04/16 10:09:39;;;;;;;;;;;10.00;99.90;;;;;;5090209;28;19924;-67
2023/04/16 10:12:06;;;;;;;;;;;10.00;99.90;;;;;;5090408;28;19924;-68
2023/04/16 10:14:35;;;;;;;;;;;9.90;99.90;;;;;;5071452;28;19925;-63
2023/04/16 10:17:03;;;;;;;;;;;9.90;99.90;;;;;;5071378;28;19970;-64
2023/04/16 10:19:30;;;;;;;;;;;9.90;99.90;;;;;;5071246;28;20391;-63
2023/04/16 10:21:57;;;;;;;;;;;9.90;99.90;;;;;;5071031;28;20011;-63
2023/04/16 10:24:24;;;;;;;;;;;9.80;99.90;;;;;;5070762;28;19925;-67
2023/04/16 10:26:52;;;;;;;;;;;9.80;99.90;;;;;;5075049;28;20309;-68
2023/04/16 10:29:19;;;;;;;;;;;9.80;99.90;;;;;;5090717;28;20015;-67
2023/04/16 10:31:48;;;;;;;;;;;9.80;99.90;;;;;;5090759;28;19924;-69
2023/04/16 10:34:15;;;;;;;;;;;9.90;99.90;;;;;;5090752;28;19924;-65
2023/04/16 10:36:42;;;;;;;;;;;9.90;99.90;;;;;;5090367;28;19928;-65
2023/04/16 10:39:10;;;;;;;;;;;9.90;99.90;;;;;;5090432;28;19928;-66
2023/04/16 10:41:37;;;;;;;;;;;10.00;99.90;;;;;;5075818;28;19924;-67
2023/04/16 10:44:08;;;;;;;;;;;10.10;99.90;;;;;;5086996;28;19935;-67
2023/04/16 10:46:37;;;;;;;;;;;10.20;99.90;;;;;;5089408;28;19964;-66
2023/04/16 10:49:15;;;;;;;;;;;10.30;99.90;;;;;;5073774;28;19972;-68
2023/04/16 10:51:42;;;;;;;;;;;10.50;99.90;;;;;;5073683;28;20299;-67
2023/04/16 10:54:23;;;;;;;;;;;10.70;99.90;;;;;;5091955;28;19924;-66
2023/04/16 10:56:49;;;;;;;;;;;10.80;99.90;;;;;;5087776;28;19941;-65
2023/04/16 10:59:18;;;;;;;;;;;11.00;99.90;;;;;;5094096;28;19924;-65
2023/04/16 11:01:45;;;;;;;;;;;11.10;99.90;;;;;;5093873;28;19928;-66
2023/04/16 11:04:30;;;;;;;;;;;11.50;99.90;;;;;;5093615;28;19924;-66
2023/04/16 11:07:01;;;;;;;;;;;12.00;99.90;;;;;;5082444;28;19952;-66
2023/04/16 11:09:45;;;;;;;;;;;12.30;99.90;;;;;;5088086;28;20391;-66
2023/04/16 11:12:12;;;;;;;;;;;12.50;99.90;;;;;;5089812;28;19924;-66
2023/04/16 11:14:40;;;;;;;;;;;13.00;99.90;;;;;;5093315;28;19924;-66
2023/04/16 11:17:06;;;;;;;;;;;13.30;99.90;;;;;;5093524;28;19924;-67
2023/04/16 11:19:35;;;;;;;;;;;13.70;99.90;;;;;;5093212;28;19959;-66
2023/04/16 11:22:02;;;;;;;;;;;;;;;;;;5092038;28;19927;-64
2023/04/16 11:24:29;;;;;;;;;;;14.00;99.90;;;;;;5090912;28;19955;-66
2023/04/16 11:26:56;;;;;;;;;;;14.30;99.90;;;;;;5093328;28;19924;-65
2023/04/16 11:29:23;;;;;;;;;;;15.00;99.90;;;;;;5093097;28;20011;-64
2023/04/16 11:31:50;;;;;;;;;;;15.50;99.90;;;;;;5093450;28;19969;-66
2023/04/16 11:34:17;;;;;;;;;;;15.40;99.90;;;;;;5092252;28;19946;-67
2023/04/16 11:36:45;;;;;;;;;;;14.90;99.90;;;;;;5072868;28;20341;-65
2023/04/16 11:39:12;;;;;;;;;;;14.20;99.90;;;;;;5072849;28;20391;-67
2023/04/16 11:41:42;;;;;;;;;;;13.60;99.90;;;;;;5072885;28;19924;-67
2023/04/16 11:44:22;;;;;;;;;;;13.00;99.90;;;;;;5072502;28;19931;-67
2023/04/16 11:46:49;;;;;;;;;;;12.70;99.90;;;;;;5078265;28;19931;-65
2023/04/16 11:49:16;;;;;;;;;;;12.60;99.90;;;;;;5072819;28;20432;-66
2023/04/16 11:51:45;;;;;;;;;;;12.70;99.90;;;;;;5070307;28;20020;-67
2023/04/16 11:54:18;;;;;;;;;;;12.60;99.90;;;;;;5081882;28;19936;-67
2023/04/16 11:56:46;;;;;;;;;;;12.80;99.90;;;;;;5081246;28;19928;-66
2023/04/16 11:59:14;;;;;;;;;;;13.00;99.90;;;;;;5076186;28;19954;-66
2023/04/16 12:01:41;;;;;;;;;;;13.20;99.90;;;;;;5083691;28;20383;-66
2023/04/16 12:04:08;;;;;;;;;;;13.40;99.90;;;;;;5092344;28;19924;-67
2023/04/16 12:06:35;;;;;;;;;;;13.30;99.90;;;;;;5083867;28;19928;-66
2023/04/16 12:09:16;;;;;;;;;;;13.10;99.90;;;;;;5092112;28;19978;-66
2023/04/16 12:11:45;;;;;;;;;;;13.10;99.90;;;;;;5085589;28;19936;-66
2023/04/16 12:14:12;;;;;;;;;;;13.20;99.90;;;;;;5083085;28;19932;-67
2023/04/16 12:16:39;;;;;;;;;;;13.10;99.90;;;;;;5074589;28;20449;-68
2023/04/16 12:19:05;;;;;;;;;;;12.90;99.90;;;;;;5077886;28;20465;-66
2023/04/16 12:21:36;;;;;;;;;;;12.70;99.90;;;;;;5090582;28;19985;-65
2023/04/16 12:24:03;;;;;;;;;;;12.50;99.90;;;;;;5089661;28;19939;-67
2023/04/16 12:26:35;;;;;;;;;;;12.40;99.90;;;;;;5089087;28;20383;-66
2023/04/16 12:29:15;;;;;;;;;;;12.40;99.90;;;;;;5075893;28;19924;-66
2023/04/16 12:31:42;;;;;;;;;;;12.50;99.90;;;;;;5080501;28;20029;-66
2023/04/16 12:34:09;;;;;;;;;;;12.60;99.90;;;;;;5077484;28;19924;-66
2023/04/16 12:36:36;;;;;;;;;;;12.80;99.90;;;;;;5086581;28;20406;-66
2023/04/16 12:39:03;;;;;;;;;;;12.90;99.90;;;;;;5076268;28;19935;-64
2023/04/16 12:41:29;;;;;;;;;;;12.90;99.90;;;;;;5074059;28;19924;-76
2023/04/16 12:44:03;;;;;;;;;;;12.80;99.90;;;;;;5087785;28;19928;-66
2023/04/16 12:46:32;;;;;;;;;;;12.60;99.90;;;;;;5079668;28;19928;-68
2023/04/16 12:48:58;;;;;;;;;;;12.50;99.90;;;;;;5078624;28;19924;-68
2023/04/16 12:51:25;;;;;;;;;;;12.40;99.90;;;;;;5071822;28;20439;-65
2023/04/16 12:53:52;;;;;;;;;;;12.40;99.90;;;;;;5090121;28;19931;-66
2023/04/16 12:56:21;;;;;;;;;;;12.30;99.90;;;;;;5081247;28;20174;-65
2023/04/16 12:58:50;;;;;;;;;;;12.40;99.90;;;;;;5098286;28;19950;-66
2023/04/16 13:01:17;;;;;;;;;;;12.50;99.90;;;;;;5090299;28;19924;-69
2023/04/16 13:03:45;;;;;;;;;;;12.50;99.90;;;;;;5085702;28;19925;-67
2023/04/16 13:06:12;;;;;;;;;;;12.60;99.90;;;;;;5077918;28;19924;-64
2023/04/16 13:08:39;;;;;;;;;;;12.80;99.90;;;;;;5070392;28;19928;-66
2023/04/16 13:11:06;;;;;;;;;;;12.90;99.90;;;;;;5077058;28;19939;-67
2023/04/16 13:13:33;;;;;;;;;;;13.00;99.90;;;;;;5079361;28;19928;-64
2023/04/16 13:15:59;;;;;;;;;;;13.00;99.90;;;;;;5087220;28;19928;-66
2023/04/16 13:18:26;;;;;;;;;;;13.00;99.90;;;;;;5072048;28;19929;-66
2023/04/16 13:20:55;;;;;;;;;;;13.00;99.90;;;;;;5069229;28;19994;-66
2023/04/16 13:23:22;;;;;;;;;;;12.90;99.90;;;;;;5069123;28;19964;-66
2023/04/16 13:25:48;;;;;;;;;;;12.90;99.90;;;;;;5069439;28;19924;-66
2023/04/16 13:28:15;;;;;;;;;;;12.90;99.90;;;;;;5069627;28;19924;-67
2023/04/16 13:30:42;;;;;;;;;;;12.90;99.90;;;;;;5080166;28;19925;-67
2023/04/16 13:33:08;;;;;;;;;;;13.00;99.90;;;;;;5089865;28;19967;-66
2023/04/16 13:35:35;;;;;;;;;;;13.00;99.90;;;;;;5080286;28;19982;-65
2023/04/16 13:38:04;;;;;;;;;;;12.80;99.90;;;;;;5085079;28;20380;-66
2023/04/16 13:40:31;;;;;;;;;;;12.90;99.90;;;;;;5080300;28;20425;-68
2023/04/16 13:42:57;;;;;;;;;;;13.00;99.90;;;;;;5077539;28;19929;-66
2023/04/16 13:45:24;;;;;;;;;;;13.10;99.90;;;;;;5080019;28;20371;-66
2023/04/16 13:47:50;;;;;;;;;;;13.10;99.90;;;;;;5078600;28;19924;-66
2023/04/16 13:50:17;;;;;;;;;;;13.10;99.90;;;;;;5079861;28;19956;-66
2023/04/16 13:52:44;;;;;;;;;;;13.10;99.90;;;;;;5081560;28;19924;-67
2023/04/16 13:55:12;;;;;;;;;;;13.00;99.90;;;;;;5076209;28;20012;-66
2023/04/16 13:57:40;;;;;;;;;;;13.10;99.90;;;;;;5083523;28;19928;-66
2023/04/16 14:00:08;;;;;;;;;;;13.20;99.90;;;;;;5080770;28;20050;-65
2023/04/16 14:02:35;;;;;;;;;;;13.10;99.90;;;;;;5077681;28;20157;-65
2023/04/16 14:05:02;;;;;;;;;;;12.80;99.90;;;;;;5082467;28;19924;-66
2023/04/16 14:07:29;;;;;;;;;;;12.80;99.90;;;;;;5079056;28;19928;-66
2023/04/16 14:09:56;;;;;;;;;;;12.80;99.90;;;;;;5084032;28;19925;-66
2023/04/16 14:12:24;;;;;;;;;;;12.90;99.90;;;;;;5079105;28;19928;-68
2023/04/16 14:14:51;;;;;;;;;;;12.70;99.90;;;;;;5070176;28;19925;-65
2023/04/16 14:17:17;;;;;;;;;;;12.60;99.90;;;;;;5079385;28;19928;-66
2023/04/16 14:19:44;;;;;;;;;;;12.70;99.90;;;;;;5078500;28;19925;-66
2023/04/16 14:22:11;;;;;;;;;;;12.70;99.90;;;;;;5078064;28;19974;-66
2023/04/16 14:24:37;;;;;;;;;;;12.50;99.90;;;;;;5086964;28;19973;-67
2023/04/16 14:27:04;;;;;;;;;;;12.50;99.90;;;;;;5093568;28;20428;-67
2023/04/16 14:29:32;;;;;;;;;;;12.40;99.90;;;;;;5094562;28;19924;-69